Rowe, MA (01367)

2:08 AM EDT on September 03, 2014 (GMT -0400)
Florida Mountain | Change Station
CLOSE
Current Station
Personal Weather Station
Location: Florida, MA
Elevation: 1975 ft
Nearby Weather Stations

Elev 1975 ft 42.70 °N, 73.05 °W | Updated 11 minutes ago

Overcast
Overcast
63.9 °F
Feels Like 63.9 °F
N
6.3
Wind Variable Wind from NE

Today
High -- | Low -- °F
--% Chance of Precip.
Yesterday
High -- | Low -- °F
Precip. -- in
6:18 AM 7:22 PM
First Quarter, 59% visible
Pressure 29.81 in
Visibility 10.0 miles
Clouds Mostly Cloudy 2200 ft
Mostly Cloudy 3200 ft
Overcast 4100 ft
Dew Point 62 °F
Humidity 95%
Rainfall 0.11 in
Snow Depth Not available.
UV 0 out of 12
Pollen 6.80 out of 12
PM2.5 Moderate
Flu Activity Not available.
METAR KAQW 030552Z AUTO 26006KT 10SM BKN022 BKN032 OVC041 20/18 A2982 RMK AO2 SLP093 60012 T02000183 10250 20200 53014

More Conditions Fewer Conditions

Pressure 29.81 in
Visibility 10.0 miles
Clouds Mostly Cloudy 2200 ft
Mostly Cloudy 3200 ft
Overcast 4100 ft
Dew Point 62 °F
Humidity 95%
Rainfall 0.11 in
Snow Depth Not available.
UV 0 out of 12
Pollen 6.80 out of 12
PM2.5 Moderate
Flu Activity Not available.
METAR KAQW 030552Z AUTO 26006KT 10SM BKN022 BKN032 OVC041 20/18 A2982 RMK AO2 SLP093 60012 T02000183 10250 20200 53014

More Conditions Fewer Conditions

10-Day Weather Forecast

Almanac

Astronomy

Sep. 03, 2014 Rise Set
Actual Time 6:18 AM EDT 7:22 PM EDT
Civil Twilight 5:49 AM EDT 7:51 PM EDT
Nautical Twilight 5:15 AM EDT 8:26 PM EDT
Astronomical Twilight 4:38 AM EDT 9:02 PM EDT
Moon 3:06 PM EDT 12:05 AM EDT
Length of Visible Light 14h 01m
Length of Day
13h 04m
Tomorrow will be 2m 48s shorter.
First Quarter, 59% of the Moon is Illuminated
Today
First Quarter
Sep 8
Full
Sep 15
Last Quarter
Sep 24
New
Oct 1
First Quarter

Today's Extremes

State Highs State Lows

Community

WunderPhotos

Upload Photos

1,749,888 photos uploaded!

Nearby

Air Quality

  Air Quality AQ Index Pollutant
Yesterday Moderate
PM2.5
Yesterday Good
OZONE
Current Moderate
PM2.5
Wednesday Good
PM2.5
Wednesday Good
OZONE

Snow Depth

Station Depth Elevation
No new snow has been reported.

Earthquake Activity

City Distance Mag. Time & Date
No recent earthquake activity has been reported nearby.
Minimum magnitude displayed is 2.5.

Coastal Water Temperatures

Place Temperature
No Stations Reporting

Nearby Weather Stations